createdAt,value
2018-04-16T04:43:47.315Z,0
2018-04-16T04:44:56.719Z,0
2018-04-16T04:46:05.943Z,0
2018-04-16T04:47:15.358Z,0
2018-04-16T04:48:24.508Z,0
2018-04-16T04:49:33.661Z,0
2018-04-16T04:50:43.582Z,0
2018-04-16T04:51:53.251Z,0
2018-04-16T04:53:02.229Z,0
2018-04-16T04:54:11.475Z,0
2018-04-16T04:55:20.882Z,0
2018-04-16T04:56:30.060Z,0
2018-04-16T04:57:39.474Z,0
2018-04-16T04:58:49.163Z,0
2018-04-16T04:59:58.580Z,0
2018-04-16T05:01:07.773Z,4
2018-04-16T05:02:17.201Z,4
2018-04-16T05:03:26.614Z,4
2018-04-16T05:04:35.773Z,0
2018-04-16T05:05:45.227Z,0
2018-04-16T05:06:54.929Z,4
2018-04-16T05:08:03.590Z,4
2018-04-16T05:09:12.485Z,4
2018-04-16T05:10:21.912Z,4
2018-04-16T05:11:31.334Z,0
2018-04-16T05:12:41.013Z,0
2018-04-16T05:13:50.715Z,4
2018-04-16T05:14:59.868Z,4
2018-04-16T05:16:09.275Z,4
2018-04-16T05:17:18.438Z,4
2018-04-16T05:18:27.331Z,4
2018-04-16T05:19:36.756Z,4
2018-04-16T05:20:45.905Z,8
2018-04-16T05:21:55.055Z,4
2018-04-16T05:23:03.994Z,4
2018-04-16T05:24:13.647Z,8
2018-04-16T05:25:23.056Z,8
2018-04-16T05:26:32.209Z,8
2018-04-16T05:27:41.893Z,8
2018-04-16T05:28:51.580Z,4
2018-04-16T05:30:00.742Z,4
2018-04-16T05:31:10.150Z,8
2018-04-16T05:32:19.320Z,8
2018-04-16T05:33:28.752Z,8
2018-04-16T05:34:37.658Z,8
2018-04-16T05:35:47.339Z,8
2018-04-16T05:36:56.501Z,12
2018-04-16T05:38:06.193Z,12
2018-04-16T05:39:15.892Z,16
2018-04-16T05:40:25.330Z,12
2018-04-16T05:41:35.004Z,20
2018-04-16T05:42:44.425Z,20
2018-04-16T05:43:54.361Z,20
2018-04-16T05:45:04.362Z,16
2018-04-16T05:46:14.307Z,12
2018-04-16T05:47:23.469Z,12
2018-04-16T05:48:32.900Z,8
2018-04-16T05:49:42.572Z,8
2018-04-16T05:50:52.006Z,12
2018-04-16T05:52:01.408Z,8
2018-04-16T05:53:10.820Z,8
2018-04-16T05:54:20.239Z,12
2018-04-16T05:55:29.427Z,8
2018-04-16T05:56:38.841Z,12
2018-04-16T05:57:48.533Z,16
2018-04-16T05:58:58.202Z,16
2018-04-16T06:00:07.363Z,12
2018-04-16T06:01:17.060Z,12
2018-04-16T06:02:26.234Z,12
2018-04-16T06:03:35.630Z,16
2018-04-16T06:04:44.536Z,16
2018-04-16T06:05:54.228Z,12
2018-04-16T06:07:03.122Z,12
2018-04-16T06:08:12.792Z,12
2018-04-16T06:09:22.466Z,12
2018-04-16T06:10:32.419Z,12
2018-04-16T06:11:42.088Z,12
2018-04-16T06:12:50.991Z,12
2018-04-16T06:14:00.150Z,12
2018-04-16T06:15:09.829Z,16
2018-04-16T06:16:19.020Z,16
2018-04-16T06:17:27.964Z,16
2018-04-16T06:18:37.135Z,16
2018-04-16T06:19:46.301Z,16
2018-04-16T06:20:55.711Z,16
2018-04-16T06:22:05.121Z,20
2018-04-16T06:23:14.781Z,24
2018-04-16T06:24:24.451Z,24
2018-04-16T06:25:34.130Z,24
2018-04-16T06:26:43.582Z,20
2018-04-16T06:27:52.738Z,20
2018-04-16T06:29:02.166Z,24
2018-04-16T06:30:11.322Z,24
2018-04-16T06:31:20.478Z,24
2018-04-16T06:32:29.664Z,20
2018-04-16T06:33:39.141Z,20
2018-04-16T06:34:48.559Z,8
2018-04-16T06:35:58.484Z,12
2018-04-16T06:37:07.955Z,8
2018-04-16T06:38:17.118Z,8
2018-04-16T06:39:26.295Z,8
2018-04-16T06:40:35.463Z,12
2018-04-16T06:41:45.432Z,12
2018-04-16T06:42:55.097Z,8
2018-04-16T06:44:05.062Z,8
2018-04-16T06:45:14.479Z,8
2018-04-16T06:46:23.888Z,8
2018-04-16T06:47:33.327Z,8
2018-04-16T06:48:42.748Z,12
2018-04-16T06:49:52.443Z,8
2018-04-16T06:51:01.614Z,12
2018-04-16T06:52:10.543Z,12
2018-04-16T06:53:19.699Z,12
2018-04-16T06:54:28.855Z,12
2018-04-16T06:55:38.784Z,12
2018-04-16T06:56:47.941Z,12
2018-04-16T06:57:57.351Z,12
2018-04-16T06:59:07.295Z,8
2018-04-16T07:00:16.769Z,8
2018-04-16T07:01:26.804Z,8
2018-04-16T07:02:35.733Z,8
2018-04-16T07:03:44.903Z,8
2018-04-16T07:04:54.357Z,12
2018-04-16T07:06:04.417Z,12
2018-04-16T07:07:14.199Z,12
2018-04-16T07:08:23.896Z,12
2018-04-16T07:09:33.587Z,12
2018-04-16T07:10:43.540Z,12
2018-04-16T07:11:53.218Z,12
2018-04-16T07:13:02.365Z,16
2018-04-16T07:14:12.053Z,12
2018-04-16T07:15:21.473Z,16
2018-04-16T07:16:31.215Z,16
2018-04-16T07:17:40.395Z,16
2018-04-16T07:18:49.564Z,16
2018-04-16T07:19:59.760Z,16
2018-04-16T07:21:09.004Z,20
2018-04-16T07:22:18.968Z,28
2018-04-16T07:23:28.380Z,16
2018-04-16T07:24:37.793Z,16
2018-04-16T07:25:47.539Z,20
2018-04-16T07:26:56.721Z,20
2018-04-16T07:28:05.639Z,20
2018-04-16T07:29:14.802Z,16
2018-04-16T07:30:24.509Z,20
2018-04-16T07:31:34.182Z,16
2018-04-16T07:32:43.329Z,16
2018-04-16T07:33:52.484Z,12
2018-04-16T07:35:02.166Z,16
2018-04-16T07:36:11.859Z,16
2018-04-16T07:37:21.548Z,20
2018-04-16T07:38:31.229Z,16
2018-04-16T07:39:40.677Z,16
2018-04-16T07:40:49.584Z,28
2018-04-16T07:41:59.052Z,16
2018-04-16T07:43:08.486Z,16
2018-04-16T07:44:17.910Z,12
2018-04-16T07:45:27.336Z,12
2018-04-16T07:46:36.254Z,12
2018-04-16T07:47:45.931Z,12
2018-04-16T07:48:54.569Z,12
2018-04-16T07:50:03.984Z,16
2018-04-16T07:51:13.404Z,16
2018-04-16T07:52:22.573Z,16
2018-04-16T07:53:32.275Z,20
2018-04-16T07:54:41.960Z,24
2018-04-16T07:55:51.616Z,24
2018-04-16T07:57:00.513Z,28
2018-04-16T07:58:09.933Z,36
2018-04-16T07:59:19.359Z,68
2018-04-16T08:00:29.060Z,68
2018-04-16T08:01:38.483Z,64
2018-04-16T08:02:47.377Z,72
2018-04-16T08:03:56.539Z,76
2018-04-16T08:05:05.446Z,76
2018-04-16T08:06:14.616Z,72
2018-04-16T08:07:24.299Z,52
2018-04-16T08:08:33.199Z,56
2018-04-16T08:09:42.624Z,56
2018-04-16T08:10:52.039Z,64
2018-04-16T08:12:01.737Z,56
2018-04-16T08:13:10.891Z,48
2018-04-16T08:14:20.081Z,52
2018-04-16T08:15:29.285Z,56
2018-04-16T08:16:38.444Z,52
2018-04-16T08:17:47.100Z,60
2018-04-16T08:18:56.521Z,52
2018-04-16T08:20:05.427Z,44
2018-04-16T08:21:14.836Z,32
2018-04-16T08:22:24.046Z,24
2018-04-16T08:23:33.467Z,24
2018-04-16T08:24:42.880Z,24
2018-04-16T08:25:52.308Z,24
2018-04-16T08:27:01.520Z,28
2018-04-16T08:28:10.711Z,28
2018-04-16T08:29:20.047Z,28
2018-04-16T08:30:29.733Z,36
2018-04-16T08:31:38.888Z,44
2018-04-16T08:32:48.812Z,40
2018-04-16T08:33:58.289Z,36
2018-04-16T08:35:07.225Z,36
2018-04-16T08:36:16.679Z,36
2018-04-16T08:37:25.840Z,40
2018-04-16T08:38:34.998Z,48
2018-04-16T08:39:44.696Z,44
2018-04-16T08:40:54.381Z,64
2018-04-16T08:42:04.108Z,32
2018-04-16T08:43:13.299Z,44
2018-04-16T08:44:22.295Z,44
2018-04-16T08:45:31.220Z,52
2018-04-16T08:46:40.918Z,52
2018-04-16T08:47:50.608Z,52
2018-04-16T08:48:59.809Z,80
2018-04-16T08:50:08.482Z,80
2018-04-16T08:51:17.909Z,76
2018-04-16T08:52:27.078Z,56
2018-04-16T08:53:36.540Z,44
2018-04-16T08:54:45.983Z,84
2018-04-16T08:55:55.175Z,80
2018-04-16T08:57:04.601Z,28
2018-04-16T08:58:13.789Z,28
2018-04-16T08:59:22.947Z,32
2018-04-16T09:00:32.639Z,32
2018-04-16T09:01:41.935Z,92
2018-04-16T09:02:51.622Z,68
2018-04-16T09:04:01.318Z,80
2018-04-16T09:05:10.230Z,56
2018-04-16T09:06:19.468Z,84
2018-04-16T09:07:28.896Z,80
2018-04-16T09:08:38.310Z,92
2018-04-16T09:09:48.411Z,88
2018-04-16T09:10:57.310Z,88
2018-04-16T09:12:06.998Z,92
2018-04-16T09:13:16.416Z,92
2018-04-16T09:14:25.342Z,88
2018-04-16T09:15:35.300Z,68
2018-04-16T09:16:44.468Z,52
2018-04-16T09:17:53.632Z,44
2018-04-16T09:19:02.807Z,56
2018-04-16T09:20:11.986Z,52
2018-04-16T09:21:21.692Z,24
2018-04-16T09:22:31.118Z,24
2018-04-16T09:23:40.544Z,24
2018-04-16T09:24:50.488Z,24
2018-04-16T09:25:59.408Z,28
2018-04-16T09:27:09.109Z,36
2018-04-16T09:28:18.303Z,36
2018-04-16T09:29:27.732Z,32
2018-04-16T09:30:37.175Z,36
2018-04-16T09:31:46.618Z,28
2018-04-16T09:32:56.322Z,24
2018-04-16T09:34:05.882Z,32
2018-04-16T09:35:15.053Z,24
2018-04-16T09:36:24.756Z,28
2018-04-16T09:37:33.909Z,36
2018-04-16T09:38:43.315Z,56
2018-04-16T09:39:52.485Z,64
2018-04-16T09:41:01.650Z,76
2018-04-16T09:42:10.807Z,80
2018-04-16T09:43:19.712Z,76
2018-04-16T09:44:29.377Z,80
2018-04-16T09:45:38.807Z,76
2018-04-16T09:46:48.514Z,72
2018-04-16T09:47:57.938Z,80
2018-04-16T09:49:07.621Z,72
2018-04-16T09:50:17.309Z,72
2018-04-16T09:51:27.122Z,76
2018-04-16T09:52:36.296Z,76
2018-04-16T09:53:45.464Z,32
2018-04-16T09:54:54.897Z,32
2018-04-16T09:56:04.698Z,80
2018-04-16T09:57:13.334Z,28
2018-04-16T09:58:22.495Z,68
2018-04-16T09:59:32.202Z,80
2018-04-16T10:00:41.353Z,80
2018-04-16T10:01:51.077Z,32
2018-04-16T10:03:00.760Z,28
2018-04-16T10:04:09.931Z,40
2018-04-16T10:05:19.618Z,56
2018-04-16T10:06:29.040Z,40
2018-04-16T10:07:38.218Z,64
2018-04-16T10:08:47.671Z,36
2018-04-16T10:09:56.584Z,24
2018-04-16T10:11:05.485Z,24
2018-04-16T10:12:15.143Z,24
2018-04-16T10:13:24.300Z,24
2018-04-16T10:14:33.731Z,24
2018-04-16T10:15:43.145Z,20
2018-04-16T10:16:52.585Z,40
2018-04-16T10:18:01.871Z,56
2018-04-16T10:19:11.112Z,60
2018-04-16T10:20:20.558Z,76
2018-04-16T10:21:30.238Z,72
2018-04-16T10:22:39.414Z,72
2018-04-16T10:23:48.602Z,68
2018-04-16T10:24:57.780Z,72
2018-04-16T10:26:07.714Z,68
2018-04-16T10:27:17.160Z,68
2018-04-16T10:28:27.196Z,68
2018-04-16T10:29:36.378Z,68
2018-04-16T10:30:45.562Z,68
2018-04-16T10:31:55.064Z,68
2018-04-16T10:33:04.962Z,68
2018-04-16T10:34:14.904Z,68
2018-04-16T10:35:24.604Z,72
2018-04-16T10:36:34.277Z,64
2018-04-16T10:37:43.437Z,24
2018-04-16T10:38:52.662Z,28
2018-04-16T10:40:01.821Z,28
2018-04-16T10:41:11.648Z,32
2018-04-16T10:42:21.353Z,28
2018-04-16T10:43:31.027Z,28
2018-04-16T10:44:40.705Z,44
2018-04-16T10:45:50.113Z,52
2018-04-16T10:46:59.281Z,24
2018-04-16T10:48:08.718Z,20
2018-04-16T10:49:17.627Z,20
2018-04-16T10:50:27.055Z,20
2018-04-16T10:51:36.484Z,24
2018-04-16T10:52:45.663Z,24
2018-04-16T10:53:55.391Z,24
2018-04-16T10:55:04.804Z,28
2018-04-16T10:56:14.772Z,28
2018-04-16T10:57:24.459Z,28
2018-04-16T10:58:33.888Z,28
2018-04-16T10:59:43.615Z,40
2018-04-16T11:00:52.816Z,56
2018-04-16T11:02:02.547Z,32
2018-04-16T11:03:12.214Z,28
2018-04-16T11:04:21.900Z,48
2018-04-16T11:05:31.568Z,40
2018-04-16T11:06:41.246Z,52
2018-04-16T11:07:50.400Z,32
2018-04-16T11:08:59.598Z,60
2018-04-16T11:10:09.014Z,56
2018-04-16T11:11:18.227Z,56
2018-04-16T11:12:26.872Z,24
2018-04-16T11:13:36.065Z,20
2018-04-16T11:14:44.977Z,20
2018-04-16T11:15:54.169Z,20
2018-04-16T11:17:03.333Z,48
2018-04-16T11:18:12.507Z,56
2018-04-16T11:19:22.541Z,28
2018-04-16T11:20:31.992Z,28
2018-04-16T11:21:41.675Z,36
2018-04-16T11:22:50.853Z,32
2018-04-16T11:24:00.297Z,36
2018-04-16T11:25:09.983Z,60
2018-04-16T11:26:19.918Z,52
2018-04-16T11:27:29.602Z,52
2018-04-16T11:28:39.011Z,52
2018-04-16T11:29:48.439Z,52
2018-04-16T11:30:58.375Z,28
2018-04-16T11:32:08.062Z,28
2018-04-16T11:33:17.230Z,32
2018-04-16T11:34:26.633Z,36
2018-04-16T11:35:36.578Z,36
2018-04-16T11:36:45.504Z,52
2018-04-16T11:37:54.959Z,56
2018-04-16T11:39:04.405Z,52
2018-04-16T11:40:13.564Z,52
2018-04-16T11:41:23.268Z,48
2018-04-16T11:42:33.167Z,52
2018-04-16T11:43:42.613Z,52
2018-04-16T11:44:51.274Z,52
2018-04-16T11:46:00.170Z,48
2018-04-16T11:47:10.138Z,52
2018-04-16T11:48:20.105Z,52
2018-04-16T11:49:29.304Z,52
2018-04-16T11:50:39.295Z,44
2018-04-16T11:51:48.981Z,52
2018-04-16T11:52:58.147Z,24
2018-04-16T11:54:07.059Z,24
2018-04-16T11:55:15.981Z,24
2018-04-16T11:56:25.146Z,24
2018-04-16T11:57:34.967Z,52
2018-04-16T11:58:44.694Z,32
2018-04-16T11:59:53.871Z,32
2018-04-16T12:01:03.293Z,56
2018-04-16T12:02:12.805Z,52
2018-04-16T12:03:21.972Z,48
2018-04-16T12:04:31.421Z,24
2018-04-16T12:05:40.056Z,32
2018-04-16T12:06:49.525Z,20
2018-04-16T12:07:59.204Z,20
2018-04-16T12:09:08.359Z,16
2018-04-16T12:10:18.088Z,20
2018-04-16T12:11:27.523Z,24
2018-04-16T12:12:36.420Z,24
2018-04-16T12:13:46.086Z,24
2018-04-16T12:14:55.497Z,24
2018-04-16T12:16:05.173Z,24
2018-04-16T12:17:14.600Z,24
2018-04-16T12:18:24.020Z,28
2018-04-16T12:19:33.515Z,28
2018-04-16T12:20:42.957Z,28
2018-04-16T12:21:52.109Z,32
2018-04-16T12:23:01.289Z,32
2018-04-16T12:24:10.464Z,32
2018-04-16T12:25:20.149Z,32
2018-04-16T12:26:29.349Z,60
2018-04-16T12:27:39.163Z,64
2018-04-16T12:28:48.599Z,56
2018-04-16T12:29:58.296Z,24
2018-04-16T12:31:07.446Z,24
2018-04-16T12:32:17.116Z,24
2018-04-16T12:33:26.532Z,24
2018-04-16T12:34:35.186Z,24
2018-04-16T12:35:44.876Z,24
2018-04-16T12:36:54.416Z,24
2018-04-16T12:38:04.142Z,24
2018-04-16T12:39:13.663Z,28
2018-04-16T12:40:23.072Z,64
2018-04-16T12:41:33.010Z,36
2018-04-16T12:42:42.420Z,28
2018-04-16T12:43:52.114Z,28
2018-04-16T12:45:01.787Z,28
2018-04-16T12:46:11.463Z,28
2018-04-16T12:47:20.626Z,32
2018-04-16T12:48:30.046Z,28
2018-04-16T12:49:39.994Z,24
2018-04-16T12:50:49.178Z,20
2018-04-16T12:51:58.331Z,20
2018-04-16T12:53:07.490Z,20
2018-04-16T12:54:16.921Z,24
2018-04-16T12:55:26.593Z,24
2018-04-16T12:56:35.758Z,40
2018-04-16T12:57:44.659Z,36
2018-04-16T12:58:53.816Z,32
2018-04-16T13:00:02.986Z,44
2018-04-16T13:01:12.906Z,32
2018-04-16T13:02:22.076Z,24
2018-04-16T13:03:32.013Z,20
2018-04-16T13:04:41.173Z,24
2018-04-16T13:05:50.855Z,24
2018-04-16T13:07:00.275Z,32
2018-04-16T13:08:08.937Z,48
2018-04-16T13:09:18.640Z,56
2018-04-16T13:10:28.060Z,56
2018-04-16T13:11:37.578Z,52
2018-04-16T13:12:47.011Z,28
2018-04-16T13:13:56.183Z,32
2018-04-16T13:15:05.355Z,32
2018-04-16T13:16:14.494Z,40
2018-04-16T13:17:24.433Z,84
2018-04-16T13:18:33.852Z,64
2018-04-16T13:19:43.264Z,40
2018-04-16T13:20:52.677Z,28
2018-04-16T13:22:02.635Z,20
2018-04-16T13:23:12.323Z,16
2018-04-16T13:24:21.499Z,16
2018-04-16T13:25:30.664Z,16
2018-04-16T13:26:40.347Z,20
2018-04-16T13:27:49.779Z,24
2018-04-16T13:28:59.466Z,20
2018-04-16T13:30:08.878Z,16
2018-04-16T13:31:18.029Z,16
2018-04-16T13:32:27.180Z,16
2018-04-16T13:33:36.627Z,16
2018-04-16T13:34:46.311Z,16
2018-04-16T13:35:55.754Z,12
2018-04-16T13:37:04.941Z,12
2018-04-16T13:38:13.840Z,12
2018-04-16T13:39:22.484Z,12
2018-04-16T13:40:31.927Z,12
2018-04-16T13:41:41.124Z,8
2018-04-16T13:42:50.829Z,12
2018-04-16T13:44:00.011Z,8
2018-04-16T13:45:08.936Z,12
2018-04-16T13:46:18.630Z,8
2018-04-16T13:47:27.810Z,8
2018-04-16T13:48:37.485Z,12
2018-04-16T13:49:47.438Z,12
2018-04-16T13:50:56.100Z,16
2018-04-16T13:52:05.535Z,20
2018-04-16T13:53:14.985Z,24
2018-04-16T13:54:24.680Z,32
2018-04-16T13:55:34.096Z,48
2018-04-16T13:56:43.267Z,56
2018-04-16T13:57:52.716Z,40
2018-04-16T13:59:01.665Z,72
2018-04-16T14:00:10.834Z,68
2018-04-16T14:01:19.765Z,68
2018-04-16T14:02:28.949Z,68
2018-04-16T14:03:38.652Z,56
2018-04-16T14:04:48.090Z,60
2018-04-16T14:05:57.254Z,52
2018-04-16T14:07:06.682Z,52
2018-04-16T14:08:15.615Z,60
2018-04-16T14:09:24.781Z,72
2018-04-16T14:10:34.509Z,60
2018-04-16T14:11:43.931Z,44
2018-04-16T14:12:53.632Z,32
2018-04-16T14:14:03.580Z,24
2018-04-16T14:15:13.266Z,24
2018-04-16T14:16:22.675Z,20
2018-04-16T14:17:32.100Z,24
2018-04-16T14:18:41.548Z,20
2018-04-16T14:19:50.720Z,24
2018-04-16T14:21:00.178Z,36
2018-04-16T14:22:09.337Z,44
2018-04-16T14:23:18.750Z,28
2018-04-16T14:24:28.687Z,48
2018-04-16T14:25:38.115Z,36
2018-04-16T14:26:47.298Z,52
2018-04-16T14:27:56.705Z,56
2018-04-16T14:29:05.869Z,84
2018-04-16T14:30:15.565Z,92
2018-04-16T14:31:24.981Z,88
2018-04-16T14:32:34.473Z,104
2018-04-16T14:33:43.423Z,104
2018-04-16T14:34:52.858Z,100
2018-04-16T14:36:02.599Z,104
2018-04-16T14:37:11.761Z,96
2018-04-16T14:38:21.451Z,120
2018-04-16T14:39:31.361Z,104
2018-04-16T14:40:40.778Z,104
2018-04-16T14:41:49.797Z,88
2018-04-16T14:42:59.194Z,80
2018-04-16T14:44:08.878Z,60
2018-04-16T14:45:18.562Z,40
2018-04-16T14:46:28.284Z,52
2018-04-16T14:47:37.720Z,40
2018-04-16T14:48:47.151Z,36
2018-04-16T14:49:56.322Z,28
2018-04-16T14:51:05.285Z,28
2018-04-16T14:52:14.749Z,32
2018-04-16T14:53:24.197Z,24
2018-04-16T14:54:33.377Z,20
2018-04-16T14:55:42.568Z,24
2018-04-16T14:56:52.346Z,24
2018-04-16T14:58:01.247Z,28
2018-04-16T14:59:10.466Z,20
2018-04-16T15:00:19.653Z,24
2018-04-16T15:01:29.351Z,24
2018-04-16T15:02:39.271Z,24
2018-04-16T15:03:48.444Z,24
2018-04-16T15:04:58.120Z,24
2018-04-16T15:06:07.540Z,20
2018-04-16T15:07:16.989Z,24
2018-04-16T15:08:26.688Z,24
2018-04-16T15:09:35.842Z,20
2018-04-16T15:10:45.274Z,24
2018-04-16T15:11:54.965Z,16
2018-04-16T15:13:04.417Z,20
2018-04-16T15:14:13.838Z,20
2018-04-16T15:15:23.832Z,16
2018-04-16T15:16:33.266Z,16
2018-04-16T15:17:43.223Z,16
2018-04-16T15:18:52.646Z,20
2018-04-16T15:20:02.066Z,20
2018-04-16T15:21:11.229Z,24
2018-04-16T15:22:20.397Z,24
2018-04-16T15:23:30.079Z,24
2018-04-16T15:24:39.252Z,24
2018-04-16T15:25:49.028Z,24
2018-04-16T15:26:58.514Z,24
2018-04-16T15:28:08.460Z,24
2018-04-16T15:29:17.846Z,20
2018-04-16T15:30:27.022Z,24
2018-04-16T15:31:36.197Z,20
2018-04-16T15:32:45.416Z,16
2018-04-16T15:33:54.318Z,16
2018-04-16T15:35:03.739Z,16
2018-04-16T15:36:13.162Z,16
2018-04-16T15:37:22.835Z,12
2018-04-16T15:38:31.997Z,16
2018-04-16T15:39:41.573Z,20
2018-04-16T15:40:51.045Z,20
2018-04-16T15:42:00.475Z,16
2018-04-16T15:43:10.168Z,16
2018-04-16T15:44:19.605Z,16
2018-04-16T15:45:29.273Z,12
2018-04-16T15:46:38.444Z,12
2018-04-16T15:47:48.131Z,16
2018-04-16T15:48:57.021Z,12
2018-04-16T15:50:06.437Z,12
2018-04-16T15:51:16.124Z,12
2018-04-16T15:52:25.540Z,12
2018-04-16T15:53:35.232Z,12
2018-04-16T15:54:44.662Z,16
2018-04-16T15:55:54.132Z,12
2018-04-16T15:57:03.614Z,12
2018-04-16T15:58:13.045Z,12
2018-04-16T15:59:22.470Z,16
2018-04-16T16:00:31.679Z,16
2018-04-16T16:01:41.145Z,12
2018-04-16T16:02:51.104Z,12
2018-04-16T16:04:00.792Z,12
2018-04-16T16:05:10.196Z,12
2018-04-16T16:06:19.611Z,12
2018-04-16T16:07:29.330Z,12
2018-04-16T16:08:38.762Z,8
2018-04-16T16:09:48.176Z,8
2018-04-16T16:10:57.589Z,8
2018-04-16T16:12:07.013Z,8
2018-04-16T16:13:16.427Z,12
2018-04-16T16:14:25.317Z,8
2018-04-16T16:15:34.472Z,8
2018-04-16T16:16:44.144Z,8
2018-04-16T16:17:53.558Z,12
2018-04-16T16:19:02.985Z,8
2018-04-16T16:20:12.393Z,12
2018-04-16T16:21:22.331Z,8
2018-04-16T16:22:31.493Z,8
2018-04-16T16:23:40.653Z,8
2018-04-16T16:24:50.081Z,8
2018-04-16T16:25:59.753Z,8
2018-04-16T16:27:09.160Z,8
2018-04-16T16:28:18.328Z,8
2018-04-16T16:29:27.505Z,8
2018-04-16T16:30:36.664Z,12
2018-04-16T16:31:45.570Z,8
2018-04-16T16:32:54.714Z,8
2018-04-16T16:34:04.136Z,12
2018-04-16T16:35:13.277Z,12
2018-04-16T16:36:22.680Z,12
2018-04-16T16:37:31.831Z,8
2018-04-16T16:38:40.994Z,8
2018-04-16T16:39:50.415Z,8
2018-04-16T16:40:59.572Z,8
2018-04-16T16:42:08.734Z,8
2018-04-16T16:43:17.888Z,8
2018-04-16T16:44:27.575Z,8
2018-04-16T16:45:36.479Z,12
2018-04-16T16:46:45.387Z,8
2018-04-16T16:47:55.071Z,8
2018-04-16T16:49:04.228Z,8
2018-04-16T16:50:13.924Z,8
2018-04-16T16:51:23.324Z,8
2018-04-16T16:52:33.007Z,8
2018-04-16T16:53:42.449Z,8
2018-04-16T16:54:51.854Z,8
2018-04-16T16:56:01.002Z,8
2018-04-16T16:57:09.912Z,4
2018-04-16T16:58:19.327Z,8
2018-04-16T16:59:27.963Z,8
2018-04-16T17:00:37.648Z,4
2018-04-16T17:01:47.084Z,4
2018-04-16T17:02:56.238Z,4
2018-04-16T17:04:05.637Z,4
2018-04-16T17:05:14.900Z,4
2018-04-16T17:06:24.065Z,4
2018-04-16T17:07:33.480Z,4
2018-04-16T17:08:42.634Z,4
2018-04-16T17:09:52.063Z,4
2018-04-16T17:11:01.494Z,4
2018-04-16T17:12:10.893Z,4
2018-04-16T17:13:20.331Z,4
2018-04-16T17:14:30.041Z,4
2018-04-16T17:15:39.736Z,4
2018-04-16T17:16:49.438Z,4
2018-04-16T17:17:58.367Z,4
2018-04-16T17:19:07.554Z,4
2018-04-16T17:20:17.070Z,4
2018-04-16T17:21:26.287Z,4
2018-04-16T17:22:35.952Z,4
2018-04-16T17:23:45.150Z,4
2018-04-16T17:24:54.804Z,4
2018-04-16T17:26:04.229Z,4
2018-04-16T17:27:14.419Z,4
2018-04-16T17:28:23.838Z,4
2018-04-16T17:29:33.256Z,4
2018-04-16T17:30:42.948Z,4
2018-04-16T17:31:52.901Z,4
2018-04-16T17:33:02.093Z,4
2018-04-16T17:34:11.522Z,4
2018-04-16T17:35:20.925Z,4
2018-04-16T17:36:30.660Z,4
2018-04-16T17:37:40.608Z,4
2018-04-16T17:38:49.810Z,4
2018-04-16T17:39:59.232Z,4
2018-04-16T17:41:08.908Z,4
2018-04-16T17:42:18.851Z,4
2018-04-16T17:43:28.538Z,4
2018-04-16T17:44:38.217Z,4
2018-04-16T17:45:47.642Z,4
2018-04-16T17:46:57.292Z,4
2018-04-16T17:48:05.940Z,4
2018-04-16T17:49:15.102Z,4
2018-04-16T17:50:24.529Z,4
2018-04-16T17:51:34.228Z,0
2018-04-16T17:52:43.690Z,0
2018-04-16T17:53:53.635Z,0
2018-04-16T17:55:03.412Z,0
2018-04-16T17:56:12.857Z,0
2018-04-16T17:57:22.307Z,0
2018-04-16T17:58:31.737Z,0
2018-04-16T17:59:41.428Z,0
2018-04-16T18:00:50.612Z,4
2018-04-16T18:02:00.555Z,4
2018-04-16T18:03:09.732Z,4
2018-04-16T18:04:19.298Z,4
2018-04-16T18:05:29.108Z,4
2018-04-16T18:06:38.018Z,4
2018-04-16T18:07:47.691Z,4
2018-04-16T18:08:57.369Z,0
2018-04-16T18:10:06.769Z,0
2018-04-16T18:11:16.180Z,0
2018-04-16T18:12:25.606Z,0
2018-04-16T18:13:35.281Z,0
2018-04-16T18:14:45.117Z,0
2018-04-16T18:15:54.543Z,0
2018-04-16T18:17:04.240Z,0
2018-04-16T18:18:13.421Z,0
2018-04-16T18:19:22.326Z,0
2018-04-16T18:20:31.479Z,0
2018-04-16T18:21:40.958Z,0
2018-04-16T18:22:50.412Z,0
2018-04-16T18:23:59.830Z,0
2018-04-16T18:25:09.007Z,0
2018-04-16T18:26:18.154Z,0
2018-04-16T18:27:27.560Z,0
2018-04-16T18:28:36.984Z,0
2018-04-16T18:29:46.159Z,0
2018-04-16T18:30:55.568Z,0
2018-04-16T18:32:04.733Z,0
2018-04-16T18:33:13.683Z,0
2018-04-16T18:34:23.140Z,0
2018-04-16T18:35:32.582Z,0
2018-04-16T18:36:41.500Z,0
2018-04-16T18:37:51.185Z,0
2018-04-16T18:39:00.621Z,0
2018-04-16T18:40:09.369Z,0
2018-04-16T18:41:19.044Z,0
2018-04-16T18:42:28.204Z,0
2018-04-16T18:43:37.635Z,0
2018-04-16T18:44:47.056Z,0
2018-04-16T18:45:56.230Z,0
2018-04-16T18:47:05.658Z,0
2018-04-16T18:48:14.831Z,0
2018-04-16T18:49:24.516Z,0
2018-04-16T18:50:33.702Z,0
2018-04-16T18:51:43.673Z,0
2018-04-16T18:52:53.601Z,0
2018-04-16T18:54:02.766Z,0
2018-04-16T18:55:12.487Z,0
2018-04-16T18:56:21.912Z,0
2018-04-16T18:57:31.339Z,0
2018-04-16T18:58:41.023Z,0
2018-04-16T18:59:50.700Z,0
2018-04-16T19:01:00.125Z,0
2018-04-16T19:02:09.571Z,0
2018-04-16T19:03:18.519Z,0
2018-04-16T19:04:28.205Z,0
2018-04-16T19:05:38.157Z,0
2018-04-16T19:06:47.619Z,0
2018-04-16T19:07:57.596Z,0
2018-04-16T19:09:07.023Z,0
2018-04-16T19:10:15.930Z,0
2018-04-16T19:11:25.920Z,0
2018-04-16T19:12:35.903Z,0
2018-04-16T19:13:45.588Z,0
2018-04-16T19:14:55.311Z,0
2018-04-16T19:16:04.983Z,0
2018-04-16T19:17:14.741Z,0
2018-04-16T19:18:24.159Z,0
2018-04-16T19:19:33.572Z,0
2018-04-16T19:20:42.731Z,0
2018-04-16T19:21:52.139Z,0
2018-04-16T19:23:01.302Z,0
2018-04-16T19:24:10.992Z,0
2018-04-16T19:25:20.427Z,0
2018-04-16T19:26:30.091Z,0
2018-04-16T19:27:39.514Z,0
2018-04-16T19:28:48.954Z,0
2018-04-16T19:29:58.368Z,0
2018-04-16T19:31:07.522Z,0
2018-04-16T19:32:17.192Z,0
2018-04-16T19:33:26.131Z,0
2018-04-16T19:34:35.331Z,0
2018-04-16T19:35:44.759Z,0
2018-04-16T19:36:54.184Z,0
2018-04-16T19:38:03.616Z,0
2018-04-16T19:39:12.521Z,0
2018-04-16T19:40:21.944Z,0
2018-04-16T19:41:31.098Z,0
2018-04-16T19:42:40.570Z,0
2018-04-16T19:43:49.981Z,0
2018-04-16T19:44:59.462Z,0
2018-04-16T19:46:09.162Z,0
2018-04-16T19:47:18.579Z,0
2018-04-16T19:48:28.007Z,0
2018-04-16T19:49:37.325Z,0
2018-04-16T19:50:46.486Z,0
2018-04-16T19:51:56.158Z,0
2018-04-16T19:53:05.867Z,0
2018-04-16T19:54:15.132Z,0
2018-04-16T19:55:24.315Z,0
2018-04-16T19:56:33.515Z,0
2018-04-16T19:57:42.169Z,0
2018-04-16T19:58:51.585Z,0
2018-04-16T20:00:01.000Z,0
2018-04-16T20:01:10.551Z,0
2018-04-16T20:02:20.229Z,0
2018-04-16T20:03:29.900Z,0
2018-04-16T20:04:39.056Z,0
2018-04-16T20:05:48.246Z,0
2018-04-16T20:06:57.674Z,0
2018-04-16T20:08:07.103Z,0
2018-04-16T20:09:16.785Z,0
2018-04-16T20:10:26.465Z,0
2018-04-16T20:11:36.156Z,0
2018-04-16T20:12:45.342Z,0
2018-04-16T20:13:55.012Z,0
2018-04-16T20:15:04.454Z,0
2018-04-16T20:16:13.879Z,0
2018-04-16T20:17:23.619Z,0
2018-04-16T20:18:33.016Z,0
2018-04-16T20:19:42.746Z,0
2018-04-16T20:20:51.645Z,0
2018-04-16T20:22:00.562Z,0
2018-04-16T20:23:10.241Z,0
2018-04-16T20:24:19.663Z,0
2018-04-16T20:25:29.346Z,0
2018-04-16T20:26:38.758Z,0
2018-04-16T20:27:48.192Z,0
2018-04-16T20:28:57.877Z,0
2018-04-16T20:30:07.303Z,0
2018-04-16T20:31:16.496Z,0
2018-04-16T20:32:25.652Z,0
2018-04-16T20:33:34.812Z,0
2018-04-16T20:34:44.495Z,0
2018-04-16T20:35:54.430Z,0
2018-04-16T20:37:03.859Z,0
2018-04-16T20:38:13.580Z,0
2018-04-16T20:39:23.001Z,0
2018-04-16T20:40:32.157Z,0
2018-04-16T20:41:41.835Z,0
2018-04-16T20:42:51.242Z,0
2018-04-16T20:44:00.712Z,0
2018-04-16T20:45:10.439Z,0
2018-04-16T20:46:20.403Z,0
2018-04-16T20:47:29.567Z,0
2018-04-16T20:48:38.745Z,0
2018-04-16T20:49:48.672Z,0
2018-04-16T20:50:58.227Z,0
2018-04-16T20:52:07.375Z,0
2018-04-16T20:53:17.050Z,0
2018-04-16T20:54:25.967Z,0
2018-04-16T20:55:36.149Z,0
2018-04-16T20:56:45.307Z,0
2018-04-16T20:57:54.986Z,0
2018-04-16T20:59:04.149Z,0
2018-04-16T21:00:13.565Z,0
2018-04-16T21:01:22.978Z,0
2018-04-16T21:02:31.639Z,0
2018-04-16T21:03:40.809Z,0
2018-04-16T21:04:49.698Z,0
2018-04-16T21:05:59.384Z,0
2018-04-16T21:07:08.568Z,0
2018-04-16T21:08:18.007Z,0
2018-04-16T21:09:28.035Z,0
2018-04-16T21:10:37.986Z,0
2018-04-16T21:11:47.215Z,0
2018-04-16T21:12:56.643Z,0
2018-04-16T21:14:05.840Z,0
2018-04-16T21:15:15.003Z,0
2018-04-16T21:16:23.937Z,0
2018-04-16T21:17:33.635Z,0
2018-04-16T21:18:43.058Z,0
2018-04-16T21:19:52.486Z,0
2018-04-16T21:21:01.655Z,0
2018-04-16T21:22:11.105Z,0
2018-04-16T21:23:20.302Z,0
2018-04-16T21:24:29.982Z,0
2018-04-16T21:25:38.885Z,0
2018-04-16T21:26:48.594Z,0